Time;durP1;ratioP1;P1;durP2;ratioP2;P2;SDS_P1;SDS_P2;PMS_P1;PMS_P2;Temp;Humidity;BMP_temperature;BMP_pressure;BME280_temperature;BME280_humidity;BME280_pressure;Samples;Min_cycle;Max_cycle;Signal;HPM_P1;HPM_P2
2023/02/20 00:00:37;;;;;;;5.80;4.13;;;14.90;52.70;;;;;;7567727;23;20017;-69
2023/02/20 00:03:38;;;;;;;6.85;4.22;;;14.90;52.80;;;;;;7569763;23;20010;-69
2023/02/20 00:06:39;;;;;;;5.70;3.58;;;14.90;52.90;;;;;;7566698;23;20003;-68
2023/02/20 00:09:41;;;;;;;8.30;3.72;;;14.90;52.90;;;;;;7566022;23;20312;-69
2023/02/20 00:12:42;;;;;;;5.30;3.60;;;14.80;53.00;;;;;;7564506;23;20033;-71
2023/02/20 00:15:43;;;;;;;6.57;3.85;;;14.80;53.00;;;;;;7564054;23;20031;-70
2023/02/20 00:18:44;;;;;;;8.73;3.95;;;14.90;53.10;;;;;;7564967;23;20010;-67
2023/02/20 00:21:50;;;;;;;6.60;3.70;;;14.80;53.00;;;;;;7564095;23;20007;-70
2023/02/20 00:24:52;;;;;;;9.48;4.10;;;14.80;53.00;;;;;;7563461;23;20018;-68
2023/02/20 00:27:53;;;;;;;8.05;4.38;;;14.90;53.10;;;;;;7564761;23;20013;-69
2023/02/20 00:30:54;;;;;;;7.40;4.00;;;14.90;53.10;;;;;;7564927;23;20026;-70
2023/02/20 00:33:55;;;;;;;8.18;4.07;;;14.80;53.10;;;;;;7563368;23;20053;-70
2023/02/20 00:36:57;;;;;;;7.35;3.67;;;14.80;53.10;;;;;;7566288;23;20142;-70
2023/02/20 00:39:58;;;;;;;8.80;3.78;;;14.80;53.10;;;;;;7565272;23;20503;-70
2023/02/20 00:42:59;;;;;;;6.22;3.80;;;14.80;53.10;;;;;;7565694;23;20152;-69
2023/02/20 00:46:01;;;;;;;6.75;3.20;;;14.80;53.20;;;;;;7542038;23;20018;-70
2023/02/20 00:49:03;;;;;;;8.38;3.35;;;14.80;53.20;;;;;;7566784;23;20039;-69
2023/02/20 00:52:19;;;;;;;6.07;3.65;;;14.80;53.20;;;;;;7565710;23;20018;-69
2023/02/20 00:55:20;;;;;;;6.30;2.78;;;14.80;53.20;;;;;;7565716;23;20014;-69
2023/02/20 00:58:22;;;;;;;6.55;3.08;;;14.80;53.20;;;;;;7565429;23;20114;-71
2023/02/20 01:01:24;;;;;;;5.78;3.50;;;14.80;53.30;;;;;;7565787;23;20010;-69
2023/02/20 01:04:25;;;;;;;6.88;4.03;;;14.80;53.30;;;;;;7565653;23;20010;-71
2023/02/20 01:07:26;;;;;;;5.35;3.42;;;14.60;53.20;;;;;;7565278;23;20093;-71
2023/02/20 01:10:27;;;;;;;7.35;3.15;;;14.70;53.30;;;;;;7567383;23;20082;-68
2023/02/20 01:13:29;;;;;;;8.38;3.80;;;14.70;53.40;;;;;;7541433;23;20014;-70
2023/02/20 01:16:30;;;;;;;9.50;4.65;;;14.70;53.40;;;;;;7565296;23;20018;-69
2023/02/20 01:19:31;;;;;;;8.40;4.45;;;14.70;53.40;;;;;;7564961;23;20062;-70
2023/02/20 01:22:32;;;;;;;9.90;4.50;;;14.70;53.40;;;;;;7565359;23;20093;-69
2023/02/20 01:25:33;;;;;;;7.43;3.72;;;14.70;53.40;;;;;;7567148;23;20011;-67
2023/02/20 01:28:34;;;;;;;10.40;5.13;;;14.70;53.40;;;;;;7565242;23;20062;-70
2023/02/20 01:31:37;;;;;;;7.93;4.57;;;14.70;53.50;;;;;;7565566;23;20002;-70
2023/02/20 01:34:42;;;;;;;8.20;4.63;;;14.60;53.50;;;;;;7567190;23;20090;-69
2023/02/20 01:37:43;;;;;;;7.70;4.63;;;14.70;53.50;;;;;;7565076;23;20017;-69
2023/02/20 01:40:48;;;;;;;6.93;4.10;;;14.60;53.40;;;;;;7541099;23;20014;-68
2023/02/20 01:43:49;;;;;;;9.10;4.60;;;14.60;53.50;;;;;;7517588;23;20436;-70
2023/02/20 01:46:55;;;;;;;7.85;4.50;;;14.60;53.60;;;;;;7566355;23;20011;-70
2023/02/20 01:50:02;;;;;;;6.70;4.05;;;14.60;53.60;;;;;;7541190;23;20021;-70
2023/02/20 01:53:11;;;;;;;8.45;4.63;;;14.60;53.70;;;;;;7541186;23;20388;-71
2023/02/20 01:56:12;;;;;;;8.10;4.43;;;14.50;53.70;;;;;;7541213;23;20007;-69
2023/02/20 01:59:14;;;;;;;10.57;4.80;;;14.50;53.70;;;;;;7540628;23;20451;-67
2023/02/20 02:02:16;;;;;;;6.57;3.92;;;14.50;53.70;;;;;;7566728;23;20010;-69
2023/02/20 02:05:18;;;;;;;10.13;3.90;;;14.60;53.70;;;;;;7540777;23;20014;-69
2023/02/20 02:08:22;;;;;;;6.05;3.90;;;14.60;53.70;;;;;;7566227;23;20014;-69
2023/02/20 02:11:24;;;;;;;9.38;4.35;;;14.60;53.70;;;;;;7516617;23;20380;-69
2023/02/20 02:14:25;;;;;;;7.97;4.53;;;14.50;53.80;;;;;;7566350;23;20074;-70
2023/02/20 02:17:29;;;;;;;9.27;4.47;;;14.50;53.80;;;;;;7516374;23;20018;-70
2023/02/20 02:20:30;;;;;;;8.55;4.72;;;14.50;53.90;;;;;;7540282;23;20018;-69
2023/02/20 02:24:05;;;;;;;10.70;5.32;;;14.50;54.00;;;;;;7540491;23;20040;-72
2023/02/20 02:27:31;;;;;;;8.52;4.80;;;14.50;54.00;;;;;;7540738;23;20030;-73
2023/02/20 02:31:00;;;;;;;11.18;5.47;;;14.50;54.00;;;;;;7566686;23;20364;-69
2023/02/20 02:34:13;;;;;;;10.65;5.68;;;14.50;54.10;;;;;;7541298;23;20010;-71
2023/02/20 02:37:20;;;;;;;7.57;4.50;;;14.50;54.10;;;;;;7566593;23;20041;-70
2023/02/20 02:40:47;;;;;;;9.88;4.90;;;14.40;54.20;;;;;;7561183;23;20082;-72
2023/02/20 02:44:05;;;;;;;10.50;4.80;;;14.40;54.20;;;;;;7564402;23;20037;-70
2023/02/20 02:47:21;;;;;;;8.38;5.28;;;14.40;54.30;;;;;;7564330;23;20013;-68
2023/02/20 02:50:50;;;;;;;6.72;3.88;;;14.50;54.30;;;;;;7540598;23;20432;-70
2023/02/20 02:54:09;;;;;;;9.00;4.60;;;14.50;54.30;;;;;;7561286;23;20026;-70
2023/02/20 02:57:25;;;;;;;7.72;4.63;;;14.40;54.20;;;;;;7566194;23;20377;-68
2023/02/20 03:00:54;;;;;;;10.70;5.07;;;14.40;54.40;;;;;;7565905;23;20094;-67
2023/02/20 03:03:56;;;;;;;8.93;4.53;;;14.40;54.40;;;;;;7579625;23;20017;-68
2023/02/20 03:07:03;;;;;;;9.23;4.78;;;14.40;54.50;;;;;;7571449;23;20011;-68
2023/02/20 03:10:08;;;;;;;8.77;4.35;;;14.30;54.50;;;;;;7564904;23;20030;-69
2023/02/20 03:13:11;;;;;;;15.13;5.03;;;14.30;54.60;;;;;;7565902;23;20091;-69
2023/02/20 03:16:17;;;;;;;7.32;4.15;;;14.30;54.60;;;;;;7564114;23;20014;-69
2023/02/20 03:19:36;;;;;;;8.00;4.22;;;14.30;54.70;;;;;;7539351;23;20029;-74
2023/02/20 03:22:55;;;;;;;7.55;4.15;;;14.30;54.70;;;;;;7563907;23;20017;-67
2023/02/20 03:26:17;;;;;;;6.80;4.00;;;14.30;54.70;;;;;;7564590;23;20014;-68
2023/02/20 03:29:32;;;;;;;5.30;3.83;;;14.30;54.60;;;;;;7563966;23;20010;-69
2023/02/20 03:46:17;;;;;;;9.27;4.57;;;14.30;54.70;;;;;;7563836;23;20018;-68
2023/02/20 03:49:26;;;;;;;10.38;4.53;;;14.30;54.70;;;;;;7563584;23;20014;-71
2023/02/20 03:52:27;;;;;;;6.53;4.00;;;14.30;54.90;;;;;;7563786;23;20026;-69
2023/02/20 03:55:28;;;;;;;8.68;4.15;;;14.30;54.90;;;;;;7563726;23;20124;-70
2023/02/20 03:58:36;;;;;;;6.72;3.75;;;14.40;55.00;;;;;;7563504;23;20093;-70
2023/02/20 04:01:40;;;;;;;6.75;4.38;;;14.20;54.90;;;;;;7563598;23;20007;-70
2023/02/20 04:04:46;;;;;;;8.40;4.18;;;14.20;54.90;;;;;;7563510;23;20391;-68
2023/02/20 04:07:58;;;;;;;7.50;4.60;;;14.20;54.90;;;;;;7563136;23;20297;-69
2023/02/20 04:11:27;;;;;;;7.95;4.38;;;14.10;55.00;;;;;;7563704;23;20007;-69
2023/02/20 04:14:30;;;;;;;9.98;4.55;;;14.10;55.00;;;;;;7565199;23;20128;-71
2023/02/20 04:17:49;;;;;;;9.07;4.18;;;14.10;55.00;;;;;;7563162;23;20392;-69
2023/02/20 04:20:56;;;;;;;7.95;4.68;;;14.10;55.10;;;;;;7539586;23;20014;-71
2023/02/20 04:24:11;;;;;;;6.75;4.60;;;14.00;55.10;;;;;;7563422;23;20094;-69
2023/02/20 04:27:13;;;;;;;9.15;4.95;;;14.00;55.20;;;;;;7563590;23;20007;-68
2023/02/20 04:30:21;;;;;;;8.35;4.25;;;13.90;55.30;;;;;;7564001;23;20010;-70
2023/02/20 04:33:24;;;;;;;10.07;4.00;;;13.90;55.40;;;;;;7563611;23;20468;-69
2023/02/20 04:36:29;;;;;;;9.55;4.60;;;13.80;55.50;;;;;;7563982;23;20437;-70
2023/02/20 04:39:32;;;;;;;7.40;4.32;;;13.80;55.50;;;;;;7563349;23;20017;-70
2023/02/20 04:42:34;;;;;;;15.88;4.50;;;13.70;55.70;;;;;;7563455;23;20459;-69
2023/02/20 04:45:35;;;;;;;8.90;4.72;;;13.70;55.70;;;;;;7563209;23;20038;-68
2023/02/20 04:48:36;;;;;;;9.02;4.78;;;13.60;55.80;;;;;;7563271;23;20389;-69
2023/02/20 04:51:38;;;;;;;8.68;4.25;;;13.50;55.90;;;;;;7563364;23;20007;-70
2023/02/20 04:54:39;;;;;;;8.88;4.53;;;13.50;56.00;;;;;;7563439;23;20341;-70
2023/02/20 04:57:41;;;;;;;7.13;3.90;;;13.50;56.10;;;;;;7563317;23;20321;-71
2023/02/20 05:00:43;;;;;;;7.40;3.92;;;13.50;56.20;;;;;;7563457;23;20010;-69
2023/02/20 05:03:44;;;;;;;8.38;4.93;;;13.50;56.20;;;;;;7564637;23;20101;-70
2023/02/20 05:06:52;;;;;;;6.95;4.05;;;13.50;56.20;;;;;;7565138;23;20010;-69
2023/02/20 05:09:54;;;;;;;9.45;4.38;;;13.40;56.20;;;;;;7564779;23;20007;-69
2023/02/20 05:12:55;;;;;;;7.55;3.70;;;13.40;56.20;;;;;;7565227;23;20003;-70
2023/02/20 05:15:56;;;;;;;9.98;4.63;;;13.40;56.20;;;;;;7565341;23;20015;-70
2023/02/20 05:18:59;;;;;;;9.45;4.25;;;13.40;56.20;;;;;;7563344;23;20007;-69
2023/02/20 05:22:18;;;;;;;7.35;4.00;;;13.30;56.30;;;;;;7563560;23;20344;-71
2023/02/20 05:25:19;;;;;;;11.68;4.72;;;13.30;56.30;;;;;;7565775;23;20085;-69
2023/02/20 05:28:20;;;;;;;5.60;3.63;;;13.30;56.30;;;;;;7566744;23;20014;-69
2023/02/20 05:31:21;;;;;;;9.20;4.60;;;13.30;56.30;;;;;;7565688;23;20033;-70
2023/02/20 05:34:24;;;;;;;7.30;4.18;;;13.30;56.40;;;;;;7565717;23;20010;-70
2023/02/20 05:37:27;;;;;;;9.30;4.75;;;13.30;56.40;;;;;;7565627;23;20007;-71
2023/02/20 05:40:28;;;;;;;7.05;4.20;;;13.30;56.40;;;;;;7565693;23;20085;-70
2023/02/20 05:43:29;;;;;;;7.13;4.50;;;13.40;56.40;;;;;;7567343;23;20290;-71
2023/02/20 05:46:30;;;;;;;7.32;3.80;;;13.30;56.30;;;;;;7565806;23;20017;-70
2023/02/20 05:49:31;;;;;;;8.02;4.20;;;13.30;56.30;;;;;;7565709;23;20085;-70
2023/02/20 05:52:32;;;;;;;7.13;3.85;;;13.30;56.40;;;;;;7567265;23;20002;-70
2023/02/20 05:55:33;;;;;;;9.98;4.70;;;13.30;56.40;;;;;;7575786;23;20448;-70
2023/02/20 05:58:34;;;;;;;8.55;4.30;;;13.20;56.40;;;;;;7570648;23;20013;-69
2023/02/20 06:01:35;;;;;;;7.75;4.07;;;13.10;56.50;;;;;;7566191;23;20014;-69
2023/02/20 06:04:37;;;;;;;7.72;3.85;;;13.10;56.60;;;;;;7565379;23;20003;-68
2023/02/20 06:07:38;;;;;;;6.57;3.72;;;13.10;56.70;;;;;;7564711;23;20310;-70
2023/02/20 06:10:39;;;;;;;7.07;3.47;;;13.10;56.70;;;;;;7565204;23;20022;-73
2023/02/20 06:13:41;;;;;;;6.80;3.80;;;13.10;56.50;;;;;;7565604;23;20093;-69
2023/02/20 06:16:43;;;;;;;5.78;3.08;;;13.10;56.50;;;;;;7567212;23;20438;-72
2023/02/20 06:19:44;;;;;;;5.97;3.40;;;13.10;56.40;;;;;;7566597;23;20282;-73
2023/02/20 06:22:47;;;;;;;7.22;3.67;;;13.00;56.30;;;;;;7565335;23;20030;-72
2023/02/20 06:25:48;;;;;;;6.13;3.45;;;13.00;56.40;;;;;;7565718;23;20042;-73
2023/02/20 06:28:49;;;;;;;5.63;3.83;;;12.90;56.30;;;;;;7566429;23;20006;-74
2023/02/20 06:31:50;;;;;;;5.55;3.53;;;12.90;56.30;;;;;;7567111;23;20385;-73
2023/02/20 06:34:52;;;;;;;16.52;4.05;;;12.80;56.40;;;;;;7566624;23;20364;-72
2023/02/20 06:37:53;;;;;;;7.80;3.80;;;12.80;56.40;;;;;;7564627;23;20053;-73
2023/02/20 06:40:54;;;;;;;9.18;4.03;;;12.80;56.50;;;;;;7540536;23;20046;-73
2023/02/20 06:43:55;;;;;;;6.38;4.05;;;12.70;56.50;;;;;;7516041;23;20006;-72
2023/02/20 06:46:56;;;;;;;5.93;3.50;;;12.70;56.50;;;;;;7540335;23;20013;-73
2023/02/20 06:49:57;;;;;;;7.82;4.15;;;12.70;56.60;;;;;;7565444;23;20087;-71
2023/02/20 06:52:58;;;;;;;11.70;4.50;;;12.70;56.60;;;;;;7565431;23;20038;-74
2023/02/20 06:55:59;;;;;;;11.70;5.70;;;12.70;56.60;;;;;;7565981;23;20010;-71
2023/02/20 06:59:03;;;;;;;6.95;3.97;;;12.70;56.50;;;;;;7515671;23;20089;-71
2023/02/20 07:02:04;;;;;;;9.35;4.45;;;12.70;56.60;;;;;;7539254;23;20006;-71
2023/02/20 07:05:07;;;;;;;5.90;4.13;;;12.70;56.60;;;;;;7565574;23;20010;-73
2023/02/20 07:08:09;;;;;;;18.05;4.47;;;12.70;56.50;;;;;;7566063;23;20003;-74
2023/02/20 07:11:11;;;;;;;8.95;3.90;;;12.80;56.50;;;;;;7566059;23;20015;-71
2023/02/20 07:14:12;;;;;;;7.60;3.78;;;12.80;56.40;;;;;;7540144;23;20006;-72
2023/02/20 07:17:13;;;;;;;7.00;3.63;;;12.80;56.40;;;;;;7515972;23;20101;-70
2023/02/20 07:20:15;;;;;;;7.95;3.70;;;12.80;56.40;;;;;;7539077;23;20432;-72
2023/02/20 07:23:16;;;;;;;7.05;3.65;;;12.90;56.40;;;;;;7540779;23;20014;-76
2023/02/20 07:26:25;;;;;;;7.85;3.58;;;12.90;56.20;;;;;;7540229;23;20007;-73
2023/02/20 07:29:27;;;;;;;8.75;3.85;;;12.90;56.10;;;;;;7565382;23;20090;-71
2023/02/20 07:32:28;;;;;;;8.88;3.38;;;12.90;56.00;;;;;;7565966;23;20017;-72
2023/02/20 07:35:29;;;;;;;5.80;2.97;;;12.90;56.10;;;;;;7566309;23;20177;-72
2023/02/20 07:38:36;;;;;;;7.28;3.85;;;13.00;56.60;;;;;;7539976;23;20025;-73
2023/02/20 07:41:38;;;;;;;8.00;3.33;;;13.00;55.90;;;;;;7566175;23;20045;-69
2023/02/20 07:44:40;;;;;;;6.47;3.85;;;13.10;55.60;;;;;;7538906;23;20487;-69
2023/02/20 07:47:41;;;;;;;5.93;2.97;;;13.20;55.40;;;;;;7565126;23;20017;-69
2023/02/20 07:50:42;;;;;;;12.95;4.55;;;13.20;55.20;;;;;;7516056;23;20030;-68
2023/02/20 07:53:53;;;;;;;5.80;3.72;;;13.20;55.10;;;;;;7565618;23;20030;-69
2023/02/20 07:56:55;;;;;;;11.43;4.60;;;13.20;55.10;;;;;;7564994;23;20751;-68
2023/02/20 07:59:56;;;;;;;15.90;4.75;;;13.20;54.90;;;;;;7564685;23;20010;-69
2023/02/20 08:02:58;;;;;;;6.60;3.60;;;13.30;54.90;;;;;;7565044;23;20037;-68
2023/02/20 08:05:59;;;;;;;7.97;3.67;;;13.30;54.80;;;;;;7564972;23;20022;-70
2023/02/20 08:09:00;;;;;;;7.05;3.80;;;13.30;54.70;;;;;;7564436;23;20021;-69
2023/02/20 08:12:02;;;;;;;9.65;4.63;;;13.20;54.70;;;;;;7564664;23;20333;-69
2023/02/20 08:15:03;;;;;;;7.28;4.10;;;13.30;54.80;;;;;;7564919;23;20010;-69
2023/02/20 08:18:04;;;;;;;11.88;4.55;;;13.30;54.80;;;;;;7564352;23;20615;-68
2023/02/20 08:21:05;;;;;;;11.55;4.70;;;13.30;54.60;;;;;;7564430;23;20090;-71
2023/02/20 08:24:07;;;;;;;13.85;5.35;;;13.30;54.60;;;;;;7539488;23;20400;-68
2023/02/20 08:27:08;;;;;;;12.65;4.90;;;13.70;54.70;;;;;;7564848;23;20006;-69
2023/02/20 08:30:13;;;;;;;8.43;4.35;;;13.30;54.40;;;;;;7564573;23;20092;-67
2023/02/20 08:33:14;;;;;;;15.35;5.25;;;13.30;54.40;;;;;;7565038;23;20006;-68
2023/02/20 08:36:17;;;;;;;28.88;5.88;;;13.30;55.10;;;;;;7565047;23;20006;-70
2023/02/20 08:39:18;;;;;;;15.82;5.93;;;13.30;54.60;;;;;;7546905;23;20010;-70
2023/02/20 08:42:20;;;;;;;15.07;4.78;;;13.30;54.70;;;;;;7563388;23;20429;-70
2023/02/20 08:45:21;;;;;;;14.73;5.25;;;13.30;54.70;;;;;;7565551;23;20018;-70
2023/02/20 08:48:23;;;;;;;20.92;5.00;;;13.40;54.60;;;;;;7564717;23;20451;-68
2023/02/20 08:51:25;;;;;;;12.73;4.47;;;13.50;54.60;;;;;;7574008;23;20014;-68
2023/02/20 08:54:26;;;;;;;9.55;4.70;;;13.60;54.40;;;;;;7567216;23;20010;-68
2023/02/20 08:57:27;;;;;;;13.82;4.68;;;13.60;54.30;;;;;;7565549;23;20033;-72
2023/02/20 09:00:28;;;;;;;13.10;5.35;;;13.80;54.30;;;;;;7564351;23;20014;-70
2023/02/20 09:03:29;;;;;;;13.35;5.15;;;13.90;54.20;;;;;;7564989;23;20033;-66
2023/02/20 09:06:30;;;;;;;14.35;5.18;;;13.90;54.00;;;;;;7566783;23;20010;-69
2023/02/20 09:09:31;;;;;;;16.25;5.38;;;14.00;53.90;;;;;;7566496;23;20614;-69
2023/02/20 09:12:32;;;;;;;17.13;6.63;;;14.10;53.80;;;;;;7566270;23;20010;-69
2023/02/20 09:15:38;;;;;;;13.05;5.60;;;14.10;53.80;;;;;;7540915;23;20025;-69
2023/02/20 09:18:39;;;;;;;10.43;4.80;;;14.20;53.60;;;;;;7564197;23;20463;-68
2023/02/20 09:21:44;;;;;;;11.55;5.05;;;14.30;53.50;;;;;;7540489;23;20097;-68
2023/02/20 09:24:46;;;;;;;9.52;4.70;;;14.50;53.30;;;;;;7565867;23;20085;-68
2023/02/20 09:27:47;;;;;;;8.85;4.43;;;14.50;53.20;;;;;;7565987;23;20145;-68
2023/02/20 09:30:48;;;;;;;12.25;5.03;;;14.50;52.90;;;;;;7565721;23;20332;-69
2023/02/20 09:33:49;;;;;;;12.88;5.85;;;14.60;53.00;;;;;;7564517;23;20010;-72
2023/02/20 09:36:50;;;;;;;11.30;5.15;;;14.70;52.80;;;;;;7565605;23;20102;-69
2023/02/20 09:39:51;;;;;;;11.48;5.95;;;14.80;52.70;;;;;;7565720;23;20059;-69
2023/02/20 09:43:26;;;;;;;9.27;4.57;;;14.90;52.60;;;;;;7539935;23;20010;-68
2023/02/20 09:46:27;;;;;;;11.45;5.25;;;15.00;52.30;;;;;;7565713;23;20006;-72
2023/02/20 09:49:33;;;;;;;14.88;5.72;;;15.00;52.10;;;;;;7565413;23;20301;-69
2023/02/20 09:52:39;;;;;;;12.48;5.65;;;15.10;52.10;;;;;;7539993;23;20036;-70
2023/02/20 09:55:41;;;;;;;15.13;5.45;;;15.20;51.90;;;;;;7566082;23;20022;-68
2023/02/20 09:58:44;;;;;;;8.32;4.95;;;15.30;51.70;;;;;;7540104;23;20072;-69
2023/02/20 10:02:00;;;;;;;8.57;4.85;;;15.40;51.60;;;;;;7566105;23;20293;-71
2023/02/20 10:05:13;;;;;;;11.60;5.50;;;15.40;51.30;;;;;;7540662;23;20413;-68
2023/02/20 10:08:19;;;;;;;11.48;4.45;;;15.50;51.00;;;;;;7565458;23;20003;-68
2023/02/20 10:11:49;;;;;;;11.00;5.53;;;15.50;50.80;;;;;;7540493;23;20109;-70
2023/02/20 10:15:04;;;;;;;11.52;4.85;;;15.60;50.60;;;;;;7543298;23;20042;-70
2023/02/20 10:18:27;;;;;;;10.73;4.07;;;15.60;50.30;;;;;;7564774;23;20013;-70
2023/02/20 10:21:55;;;;;;;9.27;5.03;;;15.70;50.20;;;;;;7540075;23;20030;-69
2023/02/20 10:25:15;;;;;;;11.23;5.78;;;15.70;50.20;;;;;;7557134;23;20405;-68
2023/02/20 10:28:18;;;;;;;12.50;5.05;;;15.80;49.90;;;;;;7515205;23;20014;-69
2023/02/20 10:31:29;;;;;;;14.23;5.53;;;15.90;49.60;;;;;;7565926;23;20081;-70
2023/02/20 10:34:40;;;;;;;16.98;6.80;;;16.20;49.30;;;;;;7540256;23;20017;-71
2023/02/20 10:37:48;;;;;;;13.45;6.38;;;16.50;48.60;;;;;;7565273;23;20105;-69
2023/02/20 10:40:55;;;;;;;;;;;16.80;48.00;;;;;;7565768;23;20022;-68
2023/02/20 10:44:23;;;;;;;11.95;4.78;;;17.10;47.50;;;;;;7565187;23;20048;-68
2023/02/20 10:47:51;;;;;;;17.48;4.35;;;17.30;46.90;;;;;;7565196;23;20028;-69
2023/02/20 10:51:05;;;;;;;9.40;4.43;;;17.50;46.50;;;;;;7565719;23;20082;-70
2023/02/20 10:54:18;;;;;;;6.78;4.07;;;17.70;46.10;;;;;;7565823;23;20011;-71
2023/02/20 10:57:37;;;;;;;19.23;9.10;;;17.80;46.00;;;;;;7565582;23;20014;-69
2023/02/20 11:00:45;;;;;;;13.00;4.72;;;18.10;46.00;;;;;;7565495;23;20329;-69
2023/02/20 11:04:14;;;;;;;13.00;5.38;;;18.30;45.30;;;;;;7516486;23;20014;-69
2023/02/20 11:07:21;;;;;;;8.10;4.45;;;18.40;44.60;;;;;;7565968;23;20002;-68
2023/02/20 11:10:22;;;;;;;7.75;4.72;;;18.60;44.70;;;;;;7565544;23;20006;-71
2023/02/20 11:13:24;;;;;;;7.35;4.47;;;18.90;44.20;;;;;;7539814;23;20006;-70
2023/02/20 11:16:34;;;;;;;8.57;4.78;;;19.10;43.80;;;;;;7565495;23;20011;-69
2023/02/20 11:19:46;;;;;;;8.25;4.47;;;19.30;43.60;;;;;;7565587;23;20278;-70
2023/02/20 11:22:48;;;;;;;8.48;4.18;;;19.60;43.20;;;;;;7565806;23;20007;-69
2023/02/20 11:25:50;;;;;;;9.25;5.07;;;19.90;42.60;;;;;;7539960;23;20077;-69
2023/02/20 11:29:11;;;;;;;8.35;5.05;;;20.20;42.00;;;;;;7539633;23;20073;-68
2023/02/20 11:32:29;;;;;;;13.63;6.03;;;20.50;40.80;;;;;;7565512;23;20018;-70
2023/02/20 11:35:37;;;;;;;8.23;4.05;;;20.80;39.90;;;;;;7539670;23;20037;-67
2023/02/20 11:38:39;;;;;;;10.05;4.43;;;21.10;39.30;;;;;;7564353;23;20018;-69
2023/02/20 11:41:40;;;;;;;7.57;4.30;;;21.40;38.90;;;;;;7564994;23;20114;-68
2023/02/20 11:44:42;;;;;;;7.50;4.55;;;21.80;38.30;;;;;;7565034;23;20416;-68
2023/02/20 11:47:43;;;;;;;8.18;3.80;;;22.30;37.70;;;;;;7564969;23;20007;-69
2023/02/20 11:50:46;;;;;;;9.38;4.65;;;22.90;36.90;;;;;;7566075;23;20078;-69
2023/02/20 11:54:13;;;;;;;10.38;4.07;;;23.50;35.90;;;;;;7566277;23;20089;-68
2023/02/20 11:57:43;;;;;;;6.22;3.90;;;24.10;34.60;;;;;;7543034;23;20006;-69
2023/02/20 12:00:47;;;;;;;7.10;4.32;;;24.60;33.60;;;;;;7537359;23;20082;-69
2023/02/20 12:03:54;;;;;;;6.95;4.50;;;25.00;32.70;;;;;;7539113;23;20015;-72
2023/02/20 12:06:56;;;;;;;9.70;4.00;;;25.30;32.00;;;;;;7564535;23;20003;-69
2023/02/20 12:10:19;;;;;;;21.38;4.30;;;25.60;31.20;;;;;;7564558;23;20363;-72
2023/02/20 12:13:21;;;;;;;8.52;4.70;;;25.80;30.90;;;;;;7564815;23;20069;-69
2023/02/20 12:16:49;;;;;;;9.88;4.30;;;26.20;30.50;;;;;;7565407;23;20006;-68
2023/02/20 12:20:08;;;;;;;6.57;4.43;;;26.40;30.00;;;;;;7566001;23;20013;-69
2023/02/20 12:23:27;;;;;;;7.22;4.65;;;26.70;30.00;;;;;;7566873;23;20066;-68
2023/02/20 12:26:53;;;;;;;9.32;4.07;;;26.90;29.50;;;;;;7569805;23;20016;-68
2023/02/20 12:29:54;;;;;;;6.93;4.05;;;27.00;29.40;;;;;;7495841;23;20011;-69
2023/02/20 12:33:22;;;;;;;7.20;4.07;;;27.00;28.90;;;;;;7490712;23;20012;-70
2023/02/20 12:36:33;;;;;;;6.77;4.20;;;27.10;28.90;;;;;;7492308;23;20366;-70
2023/02/20 12:39:56;;;;;;;6.68;3.88;;;27.30;28.70;;;;;;7514013;23;20098;-69
2023/02/20 12:43:25;;;;;;;5.43;3.45;;;27.10;28.50;;;;;;7527110;23;20021;-69
2023/02/20 12:46:59;;;;;;;7.47;4.05;;;27.10;28.60;;;;;;7456565;23;20020;-70
2023/02/20 12:50:51;;;;;;;7.32;3.85;;;27.10;28.30;;;;;;7433647;23;20486;-70
2023/02/20 12:54:13;;;;;;;8.30;3.70;;;27.10;28.40;;;;;;7387417;24;20009;-69
2023/02/20 12:57:17;;;;;;;5.32;3.70;;;27.30;28.00;;;;;;7387215;24;20005;-70
2023/02/20 13:00:28;;;;;;;10.52;3.15;;;26.80;28.60;;;;;;7387259;24;20446;-67
2023/02/20 13:03:39;;;;;;;6.97;3.67;;;26.00;28.90;;;;;;7387128;24;20385;-69
2023/02/20 13:06:50;;;;;;;7.72;3.25;;;25.20;29.70;;;;;;7404771;24;20016;-71
2023/02/20 13:10:15;;;;;;;9.23;3.42;;;24.50;30.40;;;;;;7420844;24;20359;-68
2023/02/20 13:13:17;;;;;;;4.43;3.08;;;23.80;31.30;;;;;;7421098;24;20020;-70
2023/02/20 13:16:33;;;;;;;7.13;2.80;;;23.30;32.00;;;;;;7421690;24;20022;-68
2023/02/20 13:19:44;;;;;;;7.93;2.47;;;22.80;32.60;;;;;;7421107;24;20016;-69
2023/02/20 13:23:02;;;;;;;5.22;2.80;;;22.30;33.10;;;;;;7446574;23;20019;-70
2023/02/20 13:26:34;;;;;;;3.92;2.33;;;21.90;33.70;;;;;;7491646;23;20095;-69
2023/02/20 13:29:57;;;;;;;17.13;2.30;;;21.60;34.10;;;;;;7525658;23;20038;-70
2023/02/20 13:33:24;;;;;;;4.57;2.13;;;21.30;34.60;;;;;;7565143;23;20101;-73
2023/02/20 13:36:27;;;;;;;6.05;2.38;;;21.00;35.00;;;;;;7566551;23;20006;-69
2023/02/20 13:39:32;;;;;;;3.25;2.28;;;20.90;35.20;;;;;;7564134;23;20024;-69
2023/02/20 13:42:34;;;;;;;10.40;2.35;;;20.70;35.40;;;;;;7566568;23;20110;-70
2023/02/20 13:45:41;;;;;;;2.65;1.80;;;20.60;35.60;;;;;;7566284;23;20077;-69
2023/02/20 13:48:45;;;;;;;3.28;2.25;;;20.50;35.70;;;;;;7563944;23;20021;-69
2023/02/20 13:51:46;;;;;;;4.53;2.00;;;20.40;35.90;;;;;;7565782;23;20357;-68
2023/02/20 13:54:47;;;;;;;3.75;2.33;;;20.30;36.00;;;;;;7564574;23;20079;-68
2023/02/20 13:57:50;;;;;;;3.35;2.10;;;20.20;36.20;;;;;;7563698;23;20010;-69
2023/02/20 14:00:53;;;;;;;2.78;1.83;;;20.20;36.50;;;;;;7565996;23;20081;-70
2023/02/20 14:04:04;;;;;;;2.58;2.08;;;20.10;36.70;;;;;;7565558;23;20007;-68
2023/02/20 14:07:05;;;;;;;15.68;2.65;;;20.10;36.90;;;;;;7565611;23;20330;-70
2023/02/20 14:10:24;;;;;;;5.65;2.67;;;20.10;37.00;;;;;;7565349;23;20006;-69
2023/02/20 14:13:26;;;;;;;8.85;2.40;;;20.00;37.10;;;;;;7566091;23;20366;-70
2023/02/20 14:16:31;;;;;;;5.95;2.70;;;20.00;37.30;;;;;;7565419;23;20007;-70
2023/02/20 14:19:37;;;;;;;7.72;2.70;;;20.00;37.40;;;;;;7563679;23;20093;-70
2023/02/20 14:22:38;;;;;;;5.50;2.90;;;19.90;37.50;;;;;;7565229;23;20058;-68
2023/02/20 14:25:39;;;;;;;4.40;2.15;;;19.90;37.60;;;;;;7565265;23;20011;-70
2023/02/20 14:28:45;;;;;;;11.00;2.83;;;19.90;37.70;;;;;;7564958;23;20034;-70
2023/02/20 14:31:51;;;;;;;6.70;2.72;;;19.80;37.70;;;;;;7563757;23;20669;-68
2023/02/20 14:35:00;;;;;;;5.43;2.53;;;19.80;37.80;;;;;;7565678;23;20034;-71
2023/02/20 14:38:38;;;;;;;4.72;2.22;;;19.80;37.80;;;;;;7564930;23;20106;-69
2023/02/20 14:41:54;;;;;;;3.30;2.25;;;19.80;38.00;;;;;;7539619;23;20015;-71
2023/02/20 14:45:04;;;;;;;3.83;2.28;;;19.70;38.60;;;;;;7565216;23;20006;-69
2023/02/20 14:48:17;;;;;;;3.35;2.30;;;19.70;38.10;;;;;;7564803;23;20035;-69
2023/02/20 14:51:23;;;;;;;7.30;2.38;;;19.70;38.10;;;;;;7565102;23;20002;-69
2023/02/20 14:54:28;;;;;;;8.27;2.47;;;19.70;38.20;;;;;;7565015;23;20332;-69
2023/02/20 14:57:30;;;;;;;4.85;2.55;;;19.60;38.10;;;;;;7539631;23;20017;-69
2023/02/20 15:00:36;;;;;;;6.00;2.10;;;19.60;38.10;;;;;;7540217;23;20515;-69
2023/02/20 15:03:38;;;;;;;4.20;2.20;;;19.60;38.10;;;;;;7567551;23;20436;-70
2023/02/20 15:06:41;;;;;;;3.80;1.80;;;19.60;38.10;;;;;;7577272;23;20006;-70
2023/02/20 15:09:45;;;;;;;5.03;1.92;;;19.50;38.20;;;;;;7544349;23;20006;-69
2023/02/20 15:12:46;;;;;;;10.32;3.47;;;19.50;38.20;;;;;;7565945;23;20425;-69
2023/02/20 15:16:02;;;;;;;4.07;1.83;;;19.50;38.20;;;;;;7565873;23;20006;-70
2023/02/20 15:19:39;;;;;;;3.42;2.17;;;19.50;38.30;;;;;;7565071;23;20011;-69
2023/02/20 15:22:40;;;;;;;3.85;2.25;;;19.50;38.30;;;;;;7564090;23;20037;-68
2023/02/20 15:25:43;;;;;;;7.03;2.13;;;19.50;38.20;;;;;;7538847;23;20010;-68
2023/02/20 15:28:44;;;;;;;6.55;2.08;;;19.50;38.30;;;;;;7564225;23;20073;-69
2023/02/20 15:32:12;;;;;;;11.60;2.25;;;19.50;38.30;;;;;;7565272;23;20003;-69
2023/02/20 15:35:20;;;;;;;2.80;1.75;;;19.50;38.30;;;;;;7565215;23;20010;-69
2023/02/20 15:38:24;;;;;;;3.28;2.17;;;19.50;38.30;;;;;;7564222;23;20018;-69
2023/02/20 15:41:25;;;;;;;6.18;1.75;;;19.50;38.40;;;;;;7539538;23;20085;-68
2023/02/20 15:44:26;;;;;;;3.22;2.15;;;19.40;38.40;;;;;;7538949;23;20010;-69
2023/02/20 15:47:27;;;;;;;2.72;1.73;;;19.40;38.40;;;;;;7564747;23;20010;-67
2023/02/20 15:50:28;;;;;;;4.80;2.05;;;19.30;38.10;;;;;;7564765;23;20309;-67
2023/02/20 15:53:32;;;;;;;18.77;2.22;;;19.30;38.60;;;;;;7539571;23;20038;-68
2023/02/20 15:56:33;;;;;;;4.40;2.17;;;19.20;38.60;;;;;;7539096;23;20013;-69
2023/02/20 15:59:35;;;;;;;4.57;2.30;;;19.30;38.70;;;;;;7539123;23;20034;-70
2023/02/20 16:02:36;;;;;;;3.70;1.80;;;19.20;38.80;;;;;;7564479;23;20009;-69
2023/02/20 16:05:37;;;;;;;9.90;2.15;;;19.10;38.70;;;;;;7538820;23;20033;-68
2023/02/20 16:08:39;;;;;;;6.75;2.25;;;19.10;38.80;;;;;;7564084;23;20003;-69
2023/02/20 16:11:46;;;;;;;3.60;2.00;;;19.10;38.90;;;;;;7564485;23;20389;-68
2023/02/20 16:14:52;;;;;;;4.93;1.95;;;19.10;38.90;;;;;;7564267;23;20367;-70
2023/02/20 16:17:54;;;;;;;5.60;1.83;;;19.00;39.00;;;;;;7564325;23;20017;-68
2023/02/20 16:20:55;;;;;;;5.95;2.22;;;19.00;39.00;;;;;;7564334;23;20130;-68
2023/02/20 16:23:56;;;;;;;4.32;2.13;;;18.90;39.10;;;;;;7538301;23;20335;-68